VOI246 MMMX-MMMY
Flight info
| Callsign | VOI246 |
|---|---|
| Flight time | N/A |
| Altitude | 36000 |
| Route | AXIRI2A AXIRI UT136 VILGO UJ31 SLW SLW1B |
| Aircraft | A320/M-SDE3FGHIRWY/LB1 |
Departure
| Time | N/A |
|---|---|
| Airport | Mexico City Benito Juárez International Airport (MMMX) |
Arrival
| Time | 2026-05-04 04:55 |
|---|---|
| Airport | Monterrey International Airport (MMMY) |
| Time | Latitude | Longitude | Altitude | Speed | Heading |
|---|---|---|---|---|---|
| 2026-05-04 03:44 | 19.69073 | -98.72558 | 15417 ft | 392 kts | 34° |
| 2026-05-04 03:45 | 19.71419 | -98.71074 | 15893 ft | 394 kts | 23° |
| 2026-05-04 03:45 | 19.73987 | -98.70085 | 16369 ft | 395 kts | 13° |
| 2026-05-04 03:45 | 19.76698 | -98.69616 | 16847 ft | 396 kts | 2° |
| 2026-05-04 03:45 | 19.79422 | -98.69437 | 17321 ft | 399 kts | 2° |
| 2026-05-04 03:46 | 19.82200 | -98.69253 | 17802 ft | 402 kts | 2° |
| 2026-05-04 03:46 | 19.85005 | -98.69064 | 18279 ft | 405 kts | 2° |
| 2026-05-04 03:46 | 19.87826 | -98.68874 | 18708 ft | 408 kts | 2° |
| 2026-05-04 03:46 | 19.90668 | -98.68684 | 19134 ft | 410 kts | 2° |
| 2026-05-04 03:47 | 19.93527 | -98.68649 | 19550 ft | 411 kts | 354° |
| 2026-05-04 03:47 | 19.96345 | -98.69146 | 19960 ft | 412 kts | 343° |
| 2026-05-04 03:47 | 19.99038 | -98.70196 | 20395 ft | 413 kts | 333° |
| 2026-05-04 03:47 | 20.01504 | -98.71760 | 20814 ft | 414 kts | 323° |
| 2026-05-04 03:48 | 20.03841 | -98.73577 | 21197 ft | 417 kts | 323° |
| 2026-05-04 03:48 | 20.06191 | -98.75396 | 21588 ft | 419 kts | 323° |
| 2026-05-04 03:48 | 20.08555 | -98.77221 | 21972 ft | 421 kts | 324° |
| 2026-05-04 03:48 | 20.10933 | -98.79057 | 22351 ft | 423 kts | 324° |
| 2026-05-04 03:49 | 20.13323 | -98.80900 | 22725 ft | 425 kts | 324° |
| 2026-05-04 03:49 | 20.15731 | -98.82757 | 22938 ft | 431 kts | 324° |
| 2026-05-04 03:49 | 20.18172 | -98.84653 | 23075 ft | 438 kts | 323° |
| 2026-05-04 03:49 | 20.20646 | -98.86590 | 23205 ft | 444 kts | 323° |
| 2026-05-04 03:50 | 20.23151 | -98.88560 | 23339 ft | 450 kts | 323° |
| 2026-05-04 03:50 | 20.25623 | -98.90562 | 23474 ft | 455 kts | 321° |
| 2026-05-04 03:50 | 20.28087 | -98.92704 | 23609 ft | 460 kts | 320° |
| 2026-05-04 03:50 | 20.30526 | -98.94931 | 23733 ft | 464 kts | 319° |
| 2026-05-04 03:51 | 20.32966 | -98.97206 | 23848 ft | 467 kts | 319° |
| 2026-05-04 03:51 | 20.35420 | -98.99497 | 24011 ft | 470 kts | 319° |
| 2026-05-04 03:51 | 20.37881 | -99.01772 | 24362 ft | 467 kts | 319° |
| 2026-05-04 03:51 | 20.40333 | -99.04009 | 24971 ft | 457 kts | 320° |
| 2026-05-04 03:52 | 20.42749 | -99.06177 | 25471 ft | 454 kts | 322° |
| 2026-05-04 03:52 | 20.45380 | -99.08036 | 25822 ft | 453 kts | 331° |
| 2026-05-04 03:52 | 20.48170 | -99.09549 | 26365 ft | 448 kts | 333° |
| 2026-05-04 03:52 | 20.50937 | -99.11060 | 26749 ft | 447 kts | 332° |
| 2026-05-04 03:53 | 20.53701 | -99.12591 | 27056 ft | 448 kts | 332° |
| 2026-05-04 03:53 | 20.56467 | -99.14133 | 27341 ft | 449 kts | 332° |
| 2026-05-04 03:53 | 20.59233 | -99.15679 | 27704 ft | 448 kts | 332° |
| 2026-05-04 03:53 | 20.61994 | -99.17218 | 28136 ft | 446 kts | 332° |
| 2026-05-04 03:54 | 20.64745 | -99.18742 | 28575 ft | 445 kts | 332° |
| 2026-05-04 03:54 | 20.67492 | -99.20259 | 28996 ft | 444 kts | 332° |
| 2026-05-04 03:54 | 20.70230 | -99.21767 | 29437 ft | 443 kts | 332° |
| 2026-05-04 03:54 | 20.72968 | -99.23275 | 29915 ft | 441 kts | 332° |
| 2026-05-04 03:55 | 20.75688 | -99.24776 | 30369 ft | 440 kts | 332° |
| 2026-05-04 03:55 | 20.78404 | -99.26279 | 30778 ft | 438 kts | 332° |
| 2026-05-04 03:55 | 20.81105 | -99.27777 | 31195 ft | 436 kts | 331° |
| 2026-05-04 03:55 | 20.83796 | -99.29273 | 31602 ft | 435 kts | 331° |
| 2026-05-04 03:56 | 20.86484 | -99.30766 | 31987 ft | 433 kts | 331° |
| 2026-05-04 03:56 | 20.89128 | -99.32234 | 32416 ft | 432 kts | 330° |
| 2026-05-04 03:56 | 20.91782 | -99.33708 | 32921 ft | 429 kts | 330° |
| 2026-05-04 03:56 | 20.94429 | -99.35178 | 33411 ft | 426 kts | 330° |
| 2026-05-04 03:57 | 20.97062 | -99.36638 | 33884 ft | 424 kts | 330° |
| 2026-05-04 03:57 | 20.99686 | -99.38093 | 34327 ft | 423 kts | 330° |
| 2026-05-04 03:57 | 21.02296 | -99.39544 | 34719 ft | 421 kts | 330° |
| 2026-05-04 03:57 | 21.04868 | -99.40973 | 35024 ft | 422 kts | 329° |
| 2026-05-04 03:58 | 21.10088 | -99.43878 | 35566 ft | 423 kts | 329° |
| 2026-05-04 03:58 | 21.12702 | -99.45331 | 35821 ft | 424 kts | 329° |
| 2026-05-04 03:58 | 21.15325 | -99.46788 | 36087 ft | 424 kts | 329° |
| 2026-05-04 03:59 | 21.20606 | -99.49726 | 36199 ft | 433 kts | 329° |
| 2026-05-04 03:59 | 21.25971 | -99.52725 | 36213 ft | 437 kts | 329° |
| 2026-05-04 04:00 | 21.31357 | -99.55732 | 36204 ft | 436 kts | 329° |
| 2026-05-04 04:00 | 21.36750 | -99.58738 | 36204 ft | 437 kts | 329° |
| 2026-05-04 04:01 | 21.42146 | -99.61744 | 36201 ft | 437 kts | 329° |
| 2026-05-04 04:01 | 21.47513 | -99.64743 | 36203 ft | 437 kts | 329° |
| 2026-05-04 04:02 | 21.52914 | -99.67770 | 36222 ft | 437 kts | 329° |
| 2026-05-04 04:02 | 21.58316 | -99.70796 | 36221 ft | 437 kts | 329° |
| 2026-05-04 04:03 | 21.63706 | -99.73813 | 36216 ft | 437 kts | 329° |
| 2026-05-04 04:03 | 21.69066 | -99.76824 | 36209 ft | 436 kts | 329° |
| 2026-05-04 04:04 | 21.74456 | -99.79856 | 36203 ft | 436 kts | 329° |
| 2026-05-04 04:04 | 21.79815 | -99.82866 | 36202 ft | 436 kts | 329° |
| 2026-05-04 04:05 | 21.85201 | -99.85893 | 36217 ft | 435 kts | 329° |
| 2026-05-04 04:05 | 21.90537 | -99.88902 | 36209 ft | 433 kts | 329° |
| 2026-05-04 04:06 | 21.95874 | -99.91904 | 36201 ft | 432 kts | 329° |
| 2026-05-04 04:06 | 22.01211 | -99.94897 | 36198 ft | 432 kts | 329° |
| 2026-05-04 04:07 | 22.06507 | -99.97886 | 36198 ft | 432 kts | 329° |
| 2026-05-04 04:07 | 22.11847 | -100.00907 | 36193 ft | 431 kts | 329° |
| 2026-05-04 04:08 | 22.17052 | -100.04028 | 36206 ft | 428 kts | 322° |
| 2026-05-04 04:08 | 22.21622 | -100.08094 | 36200 ft | 425 kts | 317° |
| 2026-05-04 04:09 | 22.26137 | -100.12208 | 36194 ft | 424 kts | 317° |
| 2026-05-04 04:09 | 22.30667 | -100.16319 | 36191 ft | 424 kts | 317° |
| 2026-05-04 04:10 | 22.35146 | -100.20401 | 36183 ft | 424 kts | 317° |
| 2026-05-04 04:10 | 22.39644 | -100.24514 | 36186 ft | 423 kts | 317° |
| 2026-05-04 04:11 | 22.44132 | -100.28624 | 36181 ft | 422 kts | 317° |
| 2026-05-04 04:11 | 22.48612 | -100.32728 | 36195 ft | 421 kts | 317° |
| 2026-05-04 04:12 | 22.53089 | -100.36830 | 36189 ft | 420 kts | 317° |
| 2026-05-04 04:12 | 22.57513 | -100.40879 | 36156 ft | 419 kts | 317° |
| 2026-05-04 04:13 | 22.61963 | -100.44947 | 36157 ft | 419 kts | 317° |
| 2026-05-04 04:13 | 22.66411 | -100.49020 | 36156 ft | 418 kts | 317° |
| 2026-05-04 04:14 | 22.70850 | -100.53095 | 36152 ft | 417 kts | 317° |
| 2026-05-04 04:14 | 22.75275 | -100.57180 | 36151 ft | 418 kts | 317° |
| 2026-05-04 04:15 | 22.79696 | -100.61253 | 36157 ft | 417 kts | 317° |
| 2026-05-04 04:15 | 22.84122 | -100.65318 | 36160 ft | 417 kts | 318° |
| 2026-05-04 04:16 | 22.88543 | -100.69388 | 36152 ft | 416 kts | 317° |
| 2026-05-04 04:16 | 22.92955 | -100.73458 | 36154 ft | 416 kts | 317° |
| 2026-05-04 04:17 | 22.97363 | -100.77516 | 36151 ft | 416 kts | 317° |
| 2026-05-04 04:17 | 23.01797 | -100.81607 | 36141 ft | 415 kts | 317° |
| 2026-05-04 04:18 | 23.06188 | -100.85678 | 36160 ft | 415 kts | 317° |
| 2026-05-04 04:18 | 23.10570 | -100.89699 | 36158 ft | 415 kts | 321° |
| 2026-05-04 04:19 | 23.15769 | -100.92453 | 36154 ft | 423 kts | 341° |
| 2026-05-04 04:19 | 23.18685 | -100.92981 | 36151 ft | 429 kts | 352° |
| 2026-05-04 04:19 | 23.21682 | -100.93016 | 36149 ft | 432 kts | 355° |
| 2026-05-04 04:20 | 23.27698 | -100.93002 | 36134 ft | 432 kts | 355° |
| 2026-05-04 04:20 | 23.32704 | -100.92995 | 36135 ft | 432 kts | 355° |
| 2026-05-04 04:21 | 23.38722 | -100.93002 | 36128 ft | 432 kts | 354° |
| 2026-05-04 04:21 | 23.44744 | -100.93004 | 36126 ft | 433 kts | 354° |
| 2026-05-04 04:22 | 23.50765 | -100.93002 | 36113 ft | 433 kts | 354° |
| 2026-05-04 04:22 | 23.56788 | -100.93001 | 36115 ft | 433 kts | 354° |
| 2026-05-04 04:23 | 23.62778 | -100.93013 | 36095 ft | 433 kts | 354° |
| 2026-05-04 04:23 | 23.68807 | -100.93027 | 36122 ft | 433 kts | 354° |
| 2026-05-04 04:24 | 23.74823 | -100.93031 | 36104 ft | 432 kts | 354° |
| 2026-05-04 04:24 | 23.80835 | -100.93028 | 36095 ft | 432 kts | 354° |
| 2026-05-04 04:25 | 23.86849 | -100.93031 | 36092 ft | 432 kts | 354° |
| 2026-05-04 04:25 | 23.92821 | -100.93032 | 36087 ft | 432 kts | 354° |
| 2026-05-04 04:26 | 23.98839 | -100.93028 | 36086 ft | 432 kts | 354° |
| 2026-05-04 04:26 | 24.04858 | -100.93022 | 36079 ft | 433 kts | 354° |
| 2026-05-04 04:27 | 24.10888 | -100.93019 | 36075 ft | 434 kts | 354° |
| 2026-05-04 04:27 | 24.16892 | -100.93022 | 36073 ft | 434 kts | 354° |
| 2026-05-04 04:28 | 24.22941 | -100.93023 | 36072 ft | 434 kts | 354° |
| 2026-05-04 04:28 | 24.28989 | -100.93019 | 36074 ft | 435 kts | 354° |
| 2026-05-04 04:29 | 24.35041 | -100.93005 | 36068 ft | 434 kts | 354° |
| 2026-05-04 04:29 | 24.41093 | -100.93004 | 36076 ft | 435 kts | 354° |
| 2026-05-04 04:30 | 24.47150 | -100.93004 | 36072 ft | 435 kts | 354° |
| 2026-05-04 04:30 | 24.53209 | -100.93010 | 36079 ft | 436 kts | 354° |
| 2026-05-04 04:31 | 24.59270 | -100.93011 | 36085 ft | 436 kts | 354° |
| 2026-05-04 04:31 | 24.65329 | -100.92999 | 36103 ft | 435 kts | 354° |
| 2026-05-04 04:32 | 24.71370 | -100.92997 | 36099 ft | 433 kts | 354° |
| 2026-05-04 04:32 | 24.77353 | -100.93001 | 36107 ft | 432 kts | 354° |
| 2026-05-04 04:33 | 24.83373 | -100.92991 | 36105 ft | 432 kts | 354° |
| 2026-05-04 04:33 | 24.89382 | -100.92986 | 36114 ft | 431 kts | 354° |
| 2026-05-04 04:34 | 24.95380 | -100.93005 | 36126 ft | 431 kts | 353° |
| 2026-05-04 04:34 | 25.01339 | -100.93019 | 36118 ft | 430 kts | 354° |
| 2026-05-04 04:35 | 25.07327 | -100.93007 | 36115 ft | 430 kts | 353° |
| 2026-05-04 04:35 | 25.13315 | -100.93000 | 36109 ft | 430 kts | 353° |
| 2026-05-04 04:36 | 25.19301 | -100.93000 | 36108 ft | 431 kts | 353° |
| 2026-05-04 04:36 | 25.25296 | -100.92995 | 36129 ft | 431 kts | 353° |
| 2026-05-04 04:37 | 25.37205 | -100.92988 | 36219 ft | 425 kts | 353° |
| 2026-05-04 04:38 | 25.43076 | -100.92989 | 36242 ft | 424 kts | 353° |
| 2026-05-04 04:38 | 25.48976 | -100.92322 | 36257 ft | 443 kts | 14° |
| 2026-05-04 04:39 | 25.51660 | -100.90544 | 36249 ft | 462 kts | 35° |
| 2026-05-04 04:39 | 25.53704 | -100.87738 | 36237 ft | 479 kts | 56° |
| 2026-05-04 04:39 | 25.54816 | -100.84218 | 36244 ft | 493 kts | 77° |
| 2026-05-04 04:39 | 25.55167 | -100.80420 | 36204 ft | 498 kts | 84° |
| 2026-05-04 04:40 | 25.55228 | -100.76573 | 36042 ft | 502 kts | 88° |
| 2026-05-04 04:40 | 25.55116 | -100.72704 | 36080 ft | 505 kts | 90° |
| 2026-05-04 04:40 | 25.54949 | -100.68818 | 35524 ft | 507 kts | 89° |
| 2026-05-04 04:40 | 25.54814 | -100.64864 | 34242 ft | 519 kts | 88° |
| 2026-05-04 04:41 | 25.54752 | -100.60836 | 32992 ft | 526 kts | 87° |
| 2026-05-04 04:41 | 25.54761 | -100.56770 | 31854 ft | 529 kts | 86° |
| 2026-05-04 04:41 | 25.54811 | -100.52696 | 30795 ft | 530 kts | 85° |
| 2026-05-04 04:41 | 25.54876 | -100.48618 | 29588 ft | 530 kts | 86° |
| 2026-05-04 04:42 | 25.54937 | -100.44531 | 28247 ft | 532 kts | 87° |
| 2026-05-04 04:42 | 25.54981 | -100.40436 | 26902 ft | 533 kts | 87° |
| 2026-05-04 04:42 | 25.55006 | -100.36322 | 25457 ft | 536 kts | 88° |
| 2026-05-04 04:42 | 25.55021 | -100.32202 | 24407 ft | 532 kts | 88° |
| 2026-05-04 04:43 | 25.55508 | -100.28193 | 23485 ft | 520 kts | 70° |
| 2026-05-04 04:43 | 25.56988 | -100.24683 | 22437 ft | 501 kts | 53° |
| 2026-05-04 04:43 | 25.59172 | -100.21765 | 21348 ft | 485 kts | 39° |
| 2026-05-04 04:43 | 25.61741 | -100.19440 | 20335 ft | 468 kts | 28° |
| 2026-05-04 04:44 | 25.64453 | -100.17509 | 19316 ft | 460 kts | 27° |
| 2026-05-04 04:44 | 25.67112 | -100.15617 | 18608 ft | 447 kts | 27° |
| 2026-05-04 04:44 | 25.69694 | -100.13780 | 17813 ft | 435 kts | 27° |
| 2026-05-04 04:44 | 25.72212 | -100.12001 | 17067 ft | 424 kts | 27° |
| 2026-05-04 04:45 | 25.74681 | -100.10273 | 16350 ft | 415 kts | 27° |
| 2026-05-04 04:45 | 25.77072 | -100.08607 | 16131 ft | 394 kts | 26° |
| 2026-05-04 04:45 | 25.79361 | -100.07010 | 15630 ft | 383 kts | 26° |
| 2026-05-04 04:47 | 25.90781 | -100.05995 | 14324 ft | 257 kts | 292° |
| 2026-05-04 04:47 | 25.91459 | -100.07828 | 13938 ft | 257 kts | 291° |
| 2026-05-04 04:47 | 25.92127 | -100.09664 | 13474 ft | 257 kts | 291° |
| 2026-05-04 04:47 | 25.92796 | -100.11501 | 13003 ft | 258 kts | 291° |
| 2026-05-04 04:48 | 25.93479 | -100.13381 | 12373 ft | 266 kts | 290° |
| 2026-05-04 04:49 | 25.96238 | -100.21037 | 10219 ft | 266 kts | 282° |
| 2026-05-04 04:49 | 25.96394 | -100.23058 | 9316 ft | 263 kts | 260° |
| 2026-05-04 04:49 | 25.95775 | -100.24954 | 8265 ft | 263 kts | 234° |
| 2026-05-04 04:49 | 25.94511 | -100.26386 | 7256 ft | 260 kts | 209° |
| 2026-05-04 04:50 | 25.92859 | -100.27107 | 6310 ft | 255 kts | 184° |
| 2026-05-04 04:50 | 25.91159 | -100.27033 | 5723 ft | 239 kts | 163° |
| 2026-05-04 04:50 | 25.89628 | -100.26397 | 5091 ft | 233 kts | 154° |
| 2026-05-04 04:50 | 25.88131 | -100.25695 | 4337 ft | 236 kts | 156° |
| 2026-05-04 04:51 | 25.86614 | -100.24982 | 3815 ft | 233 kts | 157° |
| 2026-05-04 04:51 | 25.85318 | -100.24080 | 3698 ft | 211 kts | 133° |
| 2026-05-04 04:51 | 25.84517 | -100.22806 | 3667 ft | 195 kts | 122° |
| 2026-05-04 04:51 | 25.83837 | -100.21569 | 3388 ft | 181 kts | 122° |
| 2026-05-04 04:52 | 25.83212 | -100.20433 | 3134 ft | 168 kts | 121° |
| 2026-05-04 04:52 | 25.82626 | -100.19366 | 2937 ft | 157 kts | 122° |
| 2026-05-04 04:52 | 25.82064 | -100.18342 | 2714 ft | 154 kts | 121° |
| 2026-05-04 04:52 | 25.81510 | -100.17336 | 2500 ft | 150 kts | 121° |
| 2026-05-04 04:53 | 25.80989 | -100.16393 | 2294 ft | 140 kts | 121° |
| 2026-05-04 04:53 | 25.80485 | -100.15474 | 2108 ft | 138 kts | 120° |
| 2026-05-04 04:53 | 25.79981 | -100.14565 | 1966 ft | 138 kts | 121° |
| 2026-05-04 04:53 | 25.79485 | -100.13639 | 1756 ft | 140 kts | 122° |
| 2026-05-04 04:54 | 25.78968 | -100.12719 | 1573 ft | 141 kts | 121° |
| 2026-05-04 04:54 | 25.78458 | -100.11786 | 1381 ft | 142 kts | 121° |
| 2026-05-04 04:54 | 25.77984 | -100.10935 | 1331 ft | 108 kts | 121° |
| 2026-05-04 04:54 | 25.77685 | -100.10388 | 1331 ft | 58 kts | 122° |
| 2026-05-04 04:55 | 25.77537 | -100.10119 | 1331 ft | 33 kts | 121° |
| 2026-05-04 04:55 | 25.77416 | -100.09899 | 1331 ft | 33 kts | 121° |
| 2026-05-04 04:55 | 25.77301 | -100.09693 | 1331 ft | 14 kts | 135° |
| 2026-05-04 04:55 | 25.77245 | -100.09708 | 1331 ft | 10 kts | 206° |
| 2026-05-04 04:56 | 25.77162 | -100.09762 | 1331 ft | 16 kts | 213° |
| 2026-05-04 04:56 | 25.77177 | -100.09867 | 1331 ft | 17 kts | 300° |
| 2026-05-04 04:56 | 25.77245 | -100.09981 | 1331 ft | 19 kts | 304° |
| 2026-05-04 04:56 | 25.77314 | -100.10117 | 1331 ft | 21 kts | 300° |
| 2026-05-04 04:57 | 25.77396 | -100.10265 | 1331 ft | 24 kts | 301° |
| 2026-05-04 04:57 | 25.77485 | -100.10428 | 1331 ft | 26 kts | 301° |
| 2026-05-04 04:57 | 25.77583 | -100.10606 | 1331 ft | 28 kts | 301° |
| 2026-05-04 04:57 | 25.77689 | -100.10797 | 1331 ft | 30 kts | 301° |
| 2026-05-04 04:58 | 25.77800 | -100.11001 | 1331 ft | 32 kts | 301° |
| 2026-05-04 04:58 | 25.77916 | -100.11213 | 1331 ft | 24 kts | 301° |
| 2026-05-04 04:58 | 25.77932 | -100.11291 | 1333 ft | 8 kts | 214° |
| 2026-05-04 04:58 | 25.77881 | -100.11328 | 1331 ft | 10 kts | 211° |
| 2026-05-04 04:59 | 25.77874 | -100.11333 | 1331 ft | 0 kts | 211° |